69ND weather

Tengesdal Airport
Maxbass, North Dakota, United States

Public forecast

Using degrees Fahrenheit for public forecast. Weather courtesy of forecast.io.

METAR (pilot weather report)

Closest report is Minot Air Force Base, 23.3 nm (43.2 km) SSW. Retrieved 2019/09/15 03:56 UTC (36 minutes ago):

KMIB 150356Z AUTO 25006KT 10SM CLR 14/09 A2984 RMK AO2 SLP109 T01400086 $

TAF (pilot weather forecast)

Forecast is more than 12 hours old.

Closest forecast is Minot Air Force Base, 23.3 nm (43.2 km) SSW. Retrieved 2019/09/13 17:09 UTC (1 day ago):

TAF KMIB 131700Z 1317/1423 30012KT 9999 BKN010 QNH2993INS BECMG 1323/1324 24012KT 9999 SKC QNH2976INS TX23/1320Z TN11/1411Z